sensor_id;sensor_type;location;lat;lon;timestamp;P1;durP1;ratioP1;P2;durP2;ratioP2
14592;SDS011;7383;52.354;9.756;2022-12-13T01:28:36;15.65;;;11.68;;
14592;SDS011;7383;52.354;9.756;2022-12-13T01:31:03;13.85;;;10.82;;
14592;SDS011;7383;52.354;9.756;2022-12-13T01:33:35;13.68;;;10.45;;
14592;SDS011;7383;52.354;9.756;2022-12-13T01:36:10;13.43;;;10.88;;
14592;SDS011;7383;52.354;9.756;2022-12-13T01:38:46;14.27;;;10.73;;
14592;SDS011;7383;52.354;9.756;2022-12-13T01:41:19;12.85;;;10.98;;
14592;SDS011;7383;52.354;9.756;2022-12-13T01:46:39;13.43;;;10.38;;
14592;SDS011;7383;52.354;9.756;2022-12-13T01:49:09;13.63;;;11.00;;
14592;SDS011;7383;52.354;9.756;2022-12-13T01:51:38;15.10;;;11.23;;
14592;SDS011;7383;52.354;9.756;2022-12-13T01:54:15;13.00;;;10.88;;
14592;SDS011;7383;52.354;9.756;2022-12-13T01:56:51;14.07;;;11.32;;
14592;SDS011;7383;52.354;9.756;2022-12-13T01:59:19;13.45;;;11.50;;
14592;SDS011;7383;52.354;9.756;2022-12-13T02:01:48;16.58;;;12.10;;
14592;SDS011;7383;52.354;9.756;2022-12-13T02:04:15;16.15;;;13.10;;
14592;SDS011;7383;52.354;9.756;2022-12-13T02:10:27;15.25;;;12.30;;
14592;SDS011;7383;52.354;9.756;2022-12-13T02:13:16;14.98;;;11.38;;
14592;SDS011;7383;52.354;9.756;2022-12-13T02:15:30;14.57;;;11.18;;
14592;SDS011;7383;52.354;9.756;2022-12-13T02:38:57;13.45;;;10.82;;
14592;SDS011;7383;52.354;9.756;2022-12-13T02:41:45;12.45;;;10.73;;
14592;SDS011;7383;52.354;9.756;2022-12-13T02:44:54;12.57;;;10.10;;
14592;SDS011;7383;52.354;9.756;2022-12-13T02:47:09;14.00;;;10.77;;
14592;SDS011;7383;52.354;9.756;2022-12-13T02:49:50;13.35;;;10.70;;
14592;SDS011;7383;52.354;9.756;2022-12-13T02:53:52;14.88;;;11.65;;
14592;SDS011;7383;52.354;9.756;2022-12-13T02:55:21;13.98;;;10.73;;
14592;SDS011;7383;52.354;9.756;2022-12-13T02:58:01;14.18;;;11.23;;
14592;SDS011;7383;52.354;9.756;2022-12-13T03:00:29;14.35;;;11.20;;
14592;SDS011;7383;52.354;9.756;2022-12-13T03:03:06;13.30;;;10.60;;
14592;SDS011;7383;52.354;9.756;2022-12-13T03:05:40;14.80;;;11.10;;
14592;SDS011;7383;52.354;9.756;2022-12-13T03:08:25;13.73;;;11.05;;
14592;SDS011;7383;52.354;9.756;2022-12-13T03:11:00;13.30;;;10.30;;
14592;SDS011;7383;52.354;9.756;2022-12-13T03:13:30;13.73;;;11.43;;
14592;SDS011;7383;52.354;9.756;2022-12-13T03:16:02;13.23;;;11.15;;
14592;SDS011;7383;52.354;9.756;2022-12-13T03:18:32;14.68;;;10.95;;
14592;SDS011;7383;52.354;9.756;2022-12-13T03:21:00;14.32;;;10.95;;
14592;SDS011;7383;52.354;9.756;2022-12-13T03:23:33;13.50;;;10.50;;
14592;SDS011;7383;52.354;9.756;2022-12-13T03:26:03;14.13;;;11.15;;
14592;SDS011;7383;52.354;9.756;2022-12-13T03:28:32;12.65;;;10.60;;
14592;SDS011;7383;52.354;9.756;2022-12-13T03:31:20;14.52;;;11.23;;
14592;SDS011;7383;52.354;9.756;2022-12-13T03:33:48;12.55;;;10.45;;
14592;SDS011;7383;52.354;9.756;2022-12-13T03:36:16;13.57;;;11.38;;
14592;SDS011;7383;52.354;9.756;2022-12-13T03:38:45;14.90;;;11.90;;
14592;SDS011;7383;52.354;9.756;2022-12-13T03:41:16;13.32;;;10.70;;
14592;SDS011;7383;52.354;9.756;2022-12-13T03:43:44;13.98;;;11.20;;
14592;SDS011;7383;52.354;9.756;2022-12-13T03:46:11;14.88;;;11.70;;
14592;SDS011;7383;52.354;9.756;2022-12-13T03:48:41;15.68;;;11.50;;
14592;SDS011;7383;52.354;9.756;2022-12-13T03:51:07;14.75;;;11.50;;
14592;SDS011;7383;52.354;9.756;2022-12-13T03:53:34;15.38;;;11.65;;
14592;SDS011;7383;52.354;9.756;2022-12-13T03:56:02;12.43;;;10.38;;
14592;SDS011;7383;52.354;9.756;2022-12-13T03:58:35;14.93;;;11.65;;
14592;SDS011;7383;52.354;9.756;2022-12-13T04:01:06;14.52;;;11.90;;
14592;SDS011;7383;52.354;9.756;2022-12-13T04:03:35;16.85;;;12.02;;
14592;SDS011;7383;52.354;9.756;2022-12-13T04:06:02;13.93;;;11.45;;
14592;SDS011;7383;52.354;9.756;2022-12-13T04:08:29;12.60;;;11.02;;
14592;SDS011;7383;52.354;9.756;2022-12-13T04:11:01;16.67;;;12.20;;
14592;SDS011;7383;52.354;9.756;2022-12-13T04:13:53;15.50;;;12.27;;
14592;SDS011;7383;52.354;9.756;2022-12-13T04:16:21;15.43;;;12.10;;
14592;SDS011;7383;52.354;9.756;2022-12-13T04:18:47;19.85;;;13.27;;
14592;SDS011;7383;52.354;9.756;2022-12-13T04:21:19;15.18;;;11.65;;
14592;SDS011;7383;52.354;9.756;2022-12-13T04:24:06;15.38;;;12.32;;
14592;SDS011;7383;52.354;9.756;2022-12-13T05:41:58;16.33;;;11.95;;
14592;SDS011;7383;52.354;9.756;2022-12-13T05:44:25;16.70;;;12.13;;
14592;SDS011;7383;52.354;9.756;2022-12-13T05:46:51;14.27;;;10.90;;
14592;SDS011;7383;52.354;9.756;2022-12-13T05:49:18;14.13;;;11.18;;
14592;SDS011;7383;52.354;9.756;2022-12-13T05:51:44;15.30;;;11.65;;
14592;SDS011;7383;52.354;9.756;2022-12-13T06:50:12;18.02;;;12.02;;
14592;SDS011;7383;52.354;9.756;2022-12-13T07:11:02;17.67;;;12.57;;
14592;SDS011;7383;52.354;9.756;2022-12-13T07:13:29;18.60;;;12.38;;
14592;SDS011;7383;52.354;9.756;2022-12-13T07:16:02;19.65;;;13.90;;
14592;SDS011;7383;52.354;9.756;2022-12-13T07:18:52;19.65;;;13.45;;
14592;SDS011;7383;52.354;9.756;2022-12-13T07:21:21;19.88;;;13.13;;
14592;SDS011;7383;52.354;9.756;2022-12-13T07:23:48;18.67;;;12.40;;
14592;SDS011;7383;52.354;9.756;2022-12-13T07:26:21;19.17;;;13.43;;
14592;SDS011;7383;52.354;9.756;2022-12-13T07:29:07;19.30;;;13.00;;
14592;SDS011;7383;52.354;9.756;2022-12-13T07:31:34;17.60;;;11.82;;
14592;SDS011;7383;52.354;9.756;2022-12-13T07:34:01;15.70;;;11.65;;
14592;SDS011;7383;52.354;9.756;2022-12-13T07:36:28;16.30;;;11.90;;
14592;SDS011;7383;52.354;9.756;2022-12-13T07:38:56;17.40;;;12.52;;
14592;SDS011;7383;52.354;9.756;2022-12-13T07:41:25;17.95;;;12.02;;
14592;SDS011;7383;52.354;9.756;2022-12-13T07:43:51;18.08;;;12.65;;
14592;SDS011;7383;52.354;9.756;2022-12-13T07:46:18;14.75;;;11.27;;
14592;SDS011;7383;52.354;9.756;2022-12-13T07:48:44;17.52;;;12.65;;
14592;SDS011;7383;52.354;9.756;2022-12-13T07:51:10;16.50;;;12.50;;
14592;SDS011;7383;52.354;9.756;2022-12-13T07:53:38;17.77;;;11.52;;
14592;SDS011;7383;52.354;9.756;2022-12-13T07:56:05;17.65;;;12.38;;
14592;SDS011;7383;52.354;9.756;2022-12-13T07:58:33;17.23;;;11.93;;
14592;SDS011;7383;52.354;9.756;2022-12-13T08:01:00;16.92;;;12.18;;
14592;SDS011;7383;52.354;9.756;2022-12-13T08:03:27;17.48;;;11.88;;
14592;SDS011;7383;52.354;9.756;2022-12-13T08:06:00;17.85;;;12.52;;
14592;SDS011;7383;52.354;9.756;2022-12-13T08:08:26;18.13;;;12.23;;
14592;SDS011;7383;52.354;9.756;2022-12-13T08:10:52;16.85;;;11.65;;
14592;SDS011;7383;52.354;9.756;2022-12-13T08:13:19;18.77;;;12.30;;
14592;SDS011;7383;52.354;9.756;2022-12-13T08:15:46;18.77;;;13.15;;
14592;SDS011;7383;52.354;9.756;2022-12-13T08:18:13;18.13;;;13.02;;
14592;SDS011;7383;52.354;9.756;2022-12-13T08:20:39;16.30;;;11.90;;
14592;SDS011;7383;52.354;9.756;2022-12-13T08:23:05;17.45;;;13.07;;
14592;SDS011;7383;52.354;9.756;2022-12-13T08:25:32;18.35;;;12.75;;
14592;SDS011;7383;52.354;9.756;2022-12-13T08:27:58;18.70;;;12.45;;
14592;SDS011;7383;52.354;9.756;2022-12-13T08:30:24;19.00;;;12.95;;
14592;SDS011;7383;52.354;9.756;2022-12-13T08:32:52;17.10;;;12.15;;
14592;SDS011;7383;52.354;9.756;2022-12-13T08:35:19;20.98;;;13.27;;
14592;SDS011;7383;52.354;9.756;2022-12-13T08:37:46;18.77;;;12.75;;
14592;SDS011;7383;52.354;9.756;2022-12-13T08:40:12;19.27;;;13.27;;
14592;SDS011;7383;52.354;9.756;2022-12-13T08:42:38;19.23;;;12.75;;
14592;SDS011;7383;52.354;9.756;2022-12-13T08:45:05;18.98;;;13.75;;
14592;SDS011;7383;52.354;9.756;2022-12-13T08:47:32;20.35;;;12.80;;
14592;SDS011;7383;52.354;9.756;2022-12-13T08:49:59;20.30;;;13.68;;
14592;SDS011;7383;52.354;9.756;2022-12-13T08:52:26;19.45;;;13.77;;
14592;SDS011;7383;52.354;9.756;2022-12-13T08:54:52;19.58;;;14.52;;
14592;SDS011;7383;52.354;9.756;2022-12-13T08:57:18;20.45;;;13.40;;
14592;SDS011;7383;52.354;9.756;2022-12-13T08:59:45;21.73;;;14.23;;
14592;SDS011;7383;52.354;9.756;2022-12-13T09:02:11;21.48;;;13.68;;
14592;SDS011;7383;52.354;9.756;2022-12-13T09:04:38;19.13;;;13.48;;
14592;SDS011;7383;52.354;9.756;2022-12-13T09:07:05;19.27;;;12.95;;
14592;SDS011;7383;52.354;9.756;2022-12-13T09:09:32;19.40;;;12.27;;
14592;SDS011;7383;52.354;9.756;2022-12-13T09:11:58;20.35;;;13.77;;
14592;SDS011;7383;52.354;9.756;2022-12-13T09:14:24;22.48;;;13.55;;
14592;SDS011;7383;52.354;9.756;2022-12-13T09:16:51;20.02;;;13.15;;
14592;SDS011;7383;52.354;9.756;2022-12-13T09:19:17;22.23;;;13.77;;
14592;SDS011;7383;52.354;9.756;2022-12-13T09:21:44;20.88;;;14.10;;
14592;SDS011;7383;52.354;9.756;2022-12-13T09:24:11;22.38;;;14.55;;
14592;SDS011;7383;52.354;9.756;2022-12-13T09:26:38;22.15;;;14.40;;
14592;SDS011;7383;52.354;9.756;2022-12-13T09:29:04;19.33;;;12.70;;
14592;SDS011;7383;52.354;9.756;2022-12-13T09:31:31;23.50;;;14.18;;
14592;SDS011;7383;52.354;9.756;2022-12-13T09:33:58;22.95;;;14.73;;
14592;SDS011;7383;52.354;9.756;2022-12-13T09:36:25;22.33;;;13.88;;
14592;SDS011;7383;52.354;9.756;2022-12-13T09:38:51;19.58;;;12.68;;
14592;SDS011;7383;52.354;9.756;2022-12-13T09:41:20;20.92;;;13.93;;
14592;SDS011;7383;52.354;9.756;2022-12-13T09:43:52;20.33;;;13.60;;
14592;SDS011;7383;52.354;9.756;2022-12-13T09:46:21;22.02;;;14.35;;
14592;SDS011;7383;52.354;9.756;2022-12-13T09:48:49;21.55;;;14.23;;
14592;SDS011;7383;52.354;9.756;2022-12-13T09:51:15;20.75;;;13.80;;
14592;SDS011;7383;52.354;9.756;2022-12-13T09:53:42;21.40;;;13.13;;
14592;SDS011;7383;52.354;9.756;2022-12-13T09:56:09;20.08;;;14.13;;
14592;SDS011;7383;52.354;9.756;2022-12-13T09:58:38;19.77;;;13.05;;
14592;SDS011;7383;52.354;9.756;2022-12-13T10:01:04;18.90;;;13.18;;
14592;SDS011;7383;52.354;9.756;2022-12-13T10:03:31;19.23;;;12.70;;
14592;SDS011;7383;52.354;9.756;2022-12-13T10:05:58;17.63;;;11.98;;
14592;SDS011;7383;52.354;9.756;2022-12-13T10:08:26;19.67;;;13.68;;
14592;SDS011;7383;52.354;9.756;2022-12-13T10:10:53;18.85;;;12.93;;
14592;SDS011;7383;52.354;9.756;2022-12-13T10:13:20;18.33;;;13.48;;
14592;SDS011;7383;52.354;9.756;2022-12-13T10:15:52;19.42;;;13.63;;
14592;SDS011;7383;52.354;9.756;2022-12-13T10:18:23;19.17;;;13.05;;
14592;SDS011;7383;52.354;9.756;2022-12-13T10:20:50;17.25;;;12.20;;
14592;SDS011;7383;52.354;9.756;2022-12-13T10:23:17;20.33;;;13.55;;
14592;SDS011;7383;52.354;9.756;2022-12-13T10:25:45;18.10;;;12.23;;
14592;SDS011;7383;52.354;9.756;2022-12-13T10:28:26;22.63;;;14.93;;
14592;SDS011;7383;52.354;9.756;2022-12-13T10:31:01;19.38;;;13.52;;
14592;SDS011;7383;52.354;9.756;2022-12-13T10:33:29;19.15;;;13.95;;
14592;SDS011;7383;52.354;9.756;2022-12-13T10:36:03;21.35;;;14.20;;
14592;SDS011;7383;52.354;9.756;2022-12-13T10:38:30;21.52;;;15.55;;
14592;SDS011;7383;52.354;9.756;2022-12-13T10:40:59;22.30;;;14.52;;
14592;SDS011;7383;52.354;9.756;2022-12-13T10:43:26;19.70;;;13.95;;
14592;SDS011;7383;52.354;9.756;2022-12-13T10:45:57;23.48;;;15.05;;
14592;SDS011;7383;52.354;9.756;2022-12-13T10:48:33;21.85;;;14.57;;
14592;SDS011;7383;52.354;9.756;2022-12-13T10:51:01;20.88;;;13.48;;
14592;SDS011;7383;52.354;9.756;2022-12-13T10:53:28;19.80;;;13.45;;
14592;SDS011;7383;52.354;9.756;2022-12-13T10:55:56;18.90;;;13.77;;
14592;SDS011;7383;52.354;9.756;2022-12-13T10:58:23;19.15;;;13.60;;
14592;SDS011;7383;52.354;9.756;2022-12-13T11:00:58;19.52;;;13.48;;
14592;SDS011;7383;52.354;9.756;2022-12-13T11:03:34;19.45;;;13.73;;
14592;SDS011;7383;52.354;9.756;2022-12-13T11:06:01;17.08;;;13.20;;
14592;SDS011;7383;52.354;9.756;2022-12-13T11:08:28;20.75;;;14.57;;
14592;SDS011;7383;52.354;9.756;2022-12-13T11:10:55;19.38;;;13.30;;
14592;SDS011;7383;52.354;9.756;2022-12-13T11:13:23;18.33;;;13.18;;
14592;SDS011;7383;52.354;9.756;2022-12-13T11:15:53;21.77;;;15.00;;
14592;SDS011;7383;52.354;9.756;2022-12-13T11:18:21;19.90;;;14.27;;
14592;SDS011;7383;52.354;9.756;2022-12-13T11:20:52;22.02;;;13.77;;
14592;SDS011;7383;52.354;9.756;2022-12-13T11:23:21;18.33;;;13.77;;
14592;SDS011;7383;52.354;9.756;2022-12-13T11:25:53;20.42;;;14.27;;
14592;SDS011;7383;52.354;9.756;2022-12-13T11:28:30;20.48;;;14.52;;
14592;SDS011;7383;52.354;9.756;2022-12-13T11:31:05;18.45;;;13.63;;
14592;SDS011;7383;52.354;9.756;2022-12-13T11:33:37;18.00;;;12.98;;
14592;SDS011;7383;52.354;9.756;2022-12-13T11:36:11;18.50;;;13.23;;
14592;SDS011;7383;52.354;9.756;2022-12-13T11:38:52;20.25;;;13.82;;
14592;SDS011;7383;52.354;9.756;2022-12-13T11:41:22;19.90;;;14.20;;
14592;SDS011;7383;52.354;9.756;2022-12-13T11:43:52;18.85;;;15.18;;
14592;SDS011;7383;52.354;9.756;2022-12-13T11:46:21;18.80;;;14.00;;
14592;SDS011;7383;52.354;9.756;2022-12-13T11:48:55;17.27;;;13.98;;
14592;SDS011;7383;52.354;9.756;2022-12-13T11:51:25;14.80;;;13.02;;
14592;SDS011;7383;52.354;9.756;2022-12-13T11:53:53;16.15;;;12.82;;
14592;SDS011;7383;52.354;9.756;2022-12-13T11:56:21;14.82;;;12.43;;
14592;SDS011;7383;52.354;9.756;2022-12-13T11:58:51;14.15;;;11.93;;
14592;SDS011;7383;52.354;9.756;2022-12-13T12:01:20;14.35;;;12.23;;
14592;SDS011;7383;52.354;9.756;2022-12-13T12:03:48;13.85;;;12.45;;
14592;SDS011;7383;52.354;9.756;2022-12-13T12:06:16;14.30;;;12.52;;
14592;SDS011;7383;52.354;9.756;2022-12-13T12:08:46;13.93;;;12.52;;
14592;SDS011;7383;52.354;9.756;2022-12-13T12:11:16;13.70;;;12.27;;
14592;SDS011;7383;52.354;9.756;2022-12-13T12:13:46;13.63;;;12.07;;
14592;SDS011;7383;52.354;9.756;2022-12-13T12:16:16;14.13;;;12.52;;
14592;SDS011;7383;52.354;9.756;2022-12-13T12:18:46;14.45;;;12.95;;
14592;SDS011;7383;52.354;9.756;2022-12-13T12:21:16;14.27;;;12.77;;
14592;SDS011;7383;52.354;9.756;2022-12-13T12:23:49;12.57;;;11.30;;
14592;SDS011;7383;52.354;9.756;2022-12-13T12:26:18;12.98;;;11.63;;
14592;SDS011;7383;52.354;9.756;2022-12-13T12:28:54;12.90;;;11.63;;
14592;SDS011;7383;52.354;9.756;2022-12-13T12:31:25;12.77;;;11.48;;
14592;SDS011;7383;52.354;9.756;2022-12-13T12:33:57;12.05;;;10.85;;
14592;SDS011;7383;52.354;9.756;2022-12-13T12:36:38;12.95;;;11.70;;
14592;SDS011;7383;52.354;9.756;2022-12-13T12:39:13;12.27;;;11.07;;
14592;SDS011;7383;52.354;9.756;2022-12-13T12:41:45;13.32;;;12.02;;
14592;SDS011;7383;52.354;9.756;2022-12-13T12:44:15;13.73;;;12.32;;
14592;SDS011;7383;52.354;9.756;2022-12-13T12:46:49;13.52;;;12.23;;
14592;SDS011;7383;52.354;9.756;2022-12-13T12:49:22;12.75;;;11.45;;
14592;SDS011;7383;52.354;9.756;2022-12-13T12:51:54;13.00;;;11.73;;
14592;SDS011;7383;52.354;9.756;2022-12-13T12:54:31;13.57;;;12.25;;
14592;SDS011;7383;52.354;9.756;2022-12-13T12:57:01;13.32;;;11.93;;
14592;SDS011;7383;52.354;9.756;2022-12-13T12:59:33;14.10;;;12.63;;
14592;SDS011;7383;52.354;9.756;2022-12-13T13:02:02;14.27;;;12.10;;
14592;SDS011;7383;52.354;9.756;2022-12-13T13:04:31;15.43;;;12.27;;
14592;SDS011;7383;52.354;9.756;2022-12-13T13:07:01;13.52;;;11.77;;
14592;SDS011;7383;52.354;9.756;2022-12-13T13:09:32;13.05;;;11.20;;
14592;SDS011;7383;52.354;9.756;2022-12-13T13:12:01;13.27;;;11.00;;
14592;SDS011;7383;52.354;9.756;2022-12-13T13:14:29;13.02;;;10.85;;
14592;SDS011;7383;52.354;9.756;2022-12-13T13:16:56;11.45;;;10.02;;
14592;SDS011;7383;52.354;9.756;2022-12-13T13:19:42;12.90;;;10.45;;
14592;SDS011;7383;52.354;9.756;2022-12-13T13:22:26;12.88;;;10.90;;
14592;SDS011;7383;52.354;9.756;2022-12-13T13:27:40;11.23;;;9.63;;
14592;SDS011;7383;52.354;9.756;2022-12-13T13:32:43;12.50;;;10.95;;
14592;SDS011;7383;52.354;9.756;2022-12-13T13:38:00;12.32;;;10.40;;
14592;SDS011;7383;52.354;9.756;2022-12-13T13:40:37;12.07;;;9.95;;
14592;SDS011;7383;52.354;9.756;2022-12-13T13:43:13;12.15;;;10.48;;
14592;SDS011;7383;52.354;9.756;2022-12-13T13:45:52;12.70;;;10.82;;
14592;SDS011;7383;52.354;9.756;2022-12-13T13:48:23;13.13;;;10.57;;
14592;SDS011;7383;52.354;9.756;2022-12-13T13:50:58;11.80;;;10.20;;
14592;SDS011;7383;52.354;9.756;2022-12-13T13:53:35;12.85;;;10.68;;
14592;SDS011;7383;52.354;9.756;2022-12-13T13:56:09;13.57;;;10.65;;
14592;SDS011;7383;52.354;9.756;2022-12-13T14:04:29;13.18;;;10.38;;
14592;SDS011;7383;52.354;9.756;2022-12-13T14:07:11;13.07;;;10.50;;
14592;SDS011;7383;52.354;9.756;2022-12-13T14:12:40;12.95;;;10.85;;
14592;SDS011;7383;52.354;9.756;2022-12-13T14:20:52;11.32;;;9.32;;
14592;SDS011;7383;52.354;9.756;2022-12-13T14:23:25;12.10;;;10.32;;
14592;SDS011;7383;52.354;9.756;2022-12-13T14:25:57;13.45;;;10.20;;
14592;SDS011;7383;52.354;9.756;2022-12-13T14:28:30;12.23;;;9.77;;
14592;SDS011;7383;52.354;9.756;2022-12-13T14:30:58;12.88;;;9.98;;
14592;SDS011;7383;52.354;9.756;2022-12-13T14:33:25;11.85;;;9.93;;
14592;SDS011;7383;52.354;9.756;2022-12-13T14:35:54;13.73;;;10.48;;
14592;SDS011;7383;52.354;9.756;2022-12-13T14:38:21;12.93;;;10.45;;
14592;SDS011;7383;52.354;9.756;2022-12-13T14:40:48;15.60;;;11.38;;
14592;SDS011;7383;52.354;9.756;2022-12-13T14:43:20;12.98;;;10.48;;
14592;SDS011;7383;52.354;9.756;2022-12-13T14:45:50;14.20;;;10.45;;
14592;SDS011;7383;52.354;9.756;2022-12-13T14:48:18;14.68;;;10.57;;
14592;SDS011;7383;52.354;9.756;2022-12-13T14:50:45;14.07;;;10.90;;
14592;SDS011;7383;52.354;9.756;2022-12-13T14:53:18;12.43;;;10.82;;
14592;SDS011;7383;52.354;9.756;2022-12-13T14:56:00;13.32;;;10.75;;
14592;SDS011;7383;52.354;9.756;2022-12-13T14:58:30;15.30;;;11.68;;
14592;SDS011;7383;52.354;9.756;2022-12-13T15:00:56;15.75;;;11.50;;
14592;SDS011;7383;52.354;9.756;2022-12-13T15:03:23;13.65;;;11.32;;
14592;SDS011;7383;52.354;9.756;2022-12-13T15:05:51;16.05;;;12.25;;
14592;SDS011;7383;52.354;9.756;2022-12-13T15:08:20;13.75;;;11.13;;
14592;SDS011;7383;52.354;9.756;2022-12-13T15:10:47;18.02;;;12.85;;
14592;SDS011;7383;52.354;9.756;2022-12-13T15:13:19;16.08;;;12.65;;
14592;SDS011;7383;52.354;9.756;2022-12-13T15:15:51;17.48;;;13.00;;
14592;SDS011;7383;52.354;9.756;2022-12-13T15:18:19;15.25;;;12.10;;
14592;SDS011;7383;52.354;9.756;2022-12-13T15:20:48;15.75;;;12.45;;
14592;SDS011;7383;52.354;9.756;2022-12-13T15:23:19;14.55;;;11.50;;
14592;SDS011;7383;52.354;9.756;2022-12-13T15:25:49;14.48;;;10.88;;
14592;SDS011;7383;52.354;9.756;2022-12-13T15:28:18;14.68;;;11.10;;
14592;SDS011;7383;52.354;9.756;2022-12-13T15:30:45;15.50;;;11.43;;
14592;SDS011;7383;52.354;9.756;2022-12-13T15:33:17;15.75;;;11.00;;
14592;SDS011;7383;52.354;9.756;2022-12-13T15:35:46;14.48;;;11.10;;
14592;SDS011;7383;52.354;9.756;2022-12-13T15:38:13;13.45;;;11.13;;
14592;SDS011;7383;52.354;9.756;2022-12-13T15:40:42;13.80;;;10.77;;
14592;SDS011;7383;52.354;9.756;2022-12-13T15:43:13;14.48;;;10.52;;
14592;SDS011;7383;52.354;9.756;2022-12-13T15:45:46;14.05;;;11.07;;
14592;SDS011;7383;52.354;9.756;2022-12-13T15:48:21;13.77;;;10.48;;
14592;SDS011;7383;52.354;9.756;2022-12-13T15:50:49;12.77;;;10.57;;
14592;SDS011;7383;52.354;9.756;2022-12-13T15:53:20;14.43;;;10.55;;
14592;SDS011;7383;52.354;9.756;2022-12-13T15:55:50;11.82;;;9.13;;
14592;SDS011;7383;52.354;9.756;2022-12-13T15:58:22;13.23;;;10.85;;
14592;SDS011;7383;52.354;9.756;2022-12-13T16:00:50;12.05;;;9.98;;
14592;SDS011;7383;52.354;9.756;2022-12-13T16:03:17;14.48;;;11.00;;
14592;SDS011;7383;52.354;9.756;2022-12-13T16:08:51;11.95;;;10.25;;
14592;SDS011;7383;52.354;9.756;2022-12-13T16:11:24;13.18;;;10.48;;
14592;SDS011;7383;52.354;9.756;2022-12-13T16:13:53;12.60;;;10.45;;
14592;SDS011;7383;52.354;9.756;2022-12-13T16:16:20;13.43;;;10.63;;
14592;SDS011;7383;52.354;9.756;2022-12-13T16:18:50;12.65;;;9.98;;
14592;SDS011;7383;52.354;9.756;2022-12-13T16:21:17;12.57;;;10.52;;
14592;SDS011;7383;52.354;9.756;2022-12-13T16:23:43;13.73;;;10.88;;
14592;SDS011;7383;52.354;9.756;2022-12-13T16:26:10;14.65;;;10.52;;
14592;SDS011;7383;52.354;9.756;2022-12-13T16:28:38;13.13;;;10.48;;
14592;SDS011;7383;52.354;9.756;2022-12-13T16:33:50;12.07;;;9.20;;
14592;SDS011;7383;52.354;9.756;2022-12-13T16:36:17;12.70;;;10.48;;
14592;SDS011;7383;52.354;9.756;2022-12-13T16:38:44;13.88;;;10.38;;
14592;SDS011;7383;52.354;9.756;2022-12-13T16:41:10;14.73;;;11.40;;
14592;SDS011;7383;52.354;9.756;2022-12-13T16:43:37;15.02;;;11.13;;
14592;SDS011;7383;52.354;9.756;2022-12-13T16:46:04;13.95;;;10.27;;
14592;SDS011;7383;52.354;9.756;2022-12-13T16:48:31;13.77;;;10.73;;
14592;SDS011;7383;52.354;9.756;2022-12-13T16:50:59;14.57;;;11.98;;
14592;SDS011;7383;52.354;9.756;2022-12-13T16:53:29;14.27;;;11.25;;
14592;SDS011;7383;52.354;9.756;2022-12-13T16:55:56;14.77;;;11.60;;
14592;SDS011;7383;52.354;9.756;2022-12-13T16:58:23;15.02;;;10.65;;
14592;SDS011;7383;52.354;9.756;2022-12-13T17:00:50;13.85;;;11.10;;
14592;SDS011;7383;52.354;9.756;2022-12-13T17:03:16;14.85;;;12.10;;
14592;SDS011;7383;52.354;9.756;2022-12-13T17:05:43;15.27;;;11.25;;
14592;SDS011;7383;52.354;9.756;2022-12-13T17:11:03;20.60;;;16.17;;
14592;SDS011;7383;52.354;9.756;2022-12-13T17:13:30;17.02;;;12.75;;
14592;SDS011;7383;52.354;9.756;2022-12-13T17:15:57;16.83;;;12.15;;
14592;SDS011;7383;52.354;9.756;2022-12-13T17:18:23;18.13;;;13.27;;
14592;SDS011;7383;52.354;9.756;2022-12-13T17:20:50;17.13;;;12.25;;
14592;SDS011;7383;52.354;9.756;2022-12-13T17:23:16;14.90;;;11.50;;
14592;SDS011;7383;52.354;9.756;2022-12-13T17:25:42;15.00;;;11.57;;
14592;SDS011;7383;52.354;9.756;2022-12-13T17:28:10;16.45;;;11.65;;
14592;SDS011;7383;52.354;9.756;2022-12-13T17:30:37;16.02;;;12.55;;
14592;SDS011;7383;52.354;9.756;2022-12-13T17:33:05;16.58;;;12.20;;
14592;SDS011;7383;52.354;9.756;2022-12-13T17:35:37;16.15;;;12.43;;
14592;SDS011;7383;52.354;9.756;2022-12-13T17:38:03;15.93;;;11.93;;
14592;SDS011;7383;52.354;9.756;2022-12-13T17:40:30;17.45;;;11.85;;
14592;SDS011;7383;52.354;9.756;2022-12-13T17:42:57;16.75;;;11.80;;
14592;SDS011;7383;52.354;9.756;2022-12-13T17:45:24;16.10;;;11.80;;
14592;SDS011;7383;52.354;9.756;2022-12-13T17:47:51;14.35;;;11.48;;
14592;SDS011;7383;52.354;9.756;2022-12-13T17:50:17;15.73;;;11.80;;
14592;SDS011;7383;52.354;9.756;2022-12-13T17:52:44;15.10;;;11.32;;
14592;SDS011;7383;52.354;9.756;2022-12-13T17:55:10;15.95;;;12.15;;
14592;SDS011;7383;52.354;9.756;2022-12-13T17:57:36;16.55;;;11.82;;
14592;SDS011;7383;52.354;9.756;2022-12-13T18:00:03;15.05;;;11.68;;
14592;SDS011;7383;52.354;9.756;2022-12-13T18:02:31;17.10;;;12.63;;
14592;SDS011;7383;52.354;9.756;2022-12-13T18:05:01;16.58;;;12.38;;
14592;SDS011;7383;52.354;9.756;2022-12-13T18:07:29;15.38;;;10.73;;
14592;SDS011;7383;52.354;9.756;2022-12-13T18:09:55;18.55;;;12.50;;
14592;SDS011;7383;52.354;9.756;2022-12-13T18:12:21;16.88;;;12.57;;
14592;SDS011;7383;52.354;9.756;2022-12-13T18:14:48;15.73;;;12.18;;
14592;SDS011;7383;52.354;9.756;2022-12-13T18:17:14;16.13;;;11.80;;
14592;SDS011;7383;52.354;9.756;2022-12-13T18:19:44;15.68;;;12.10;;
14592;SDS011;7383;52.354;9.756;2022-12-13T18:22:10;15.70;;;11.77;;
14592;SDS011;7383;52.354;9.756;2022-12-13T18:24:37;15.45;;;12.40;;
14592;SDS011;7383;52.354;9.756;2022-12-13T18:27:03;15.35;;;12.00;;
14592;SDS011;7383;52.354;9.756;2022-12-13T18:29:30;14.93;;;11.15;;
14592;SDS011;7383;52.354;9.756;2022-12-13T18:31:56;15.30;;;12.60;;
14592;SDS011;7383;52.354;9.756;2022-12-13T18:34:22;15.23;;;12.50;;
14592;SDS011;7383;52.354;9.756;2022-12-13T18:36:51;19.52;;;12.40;;
14592;SDS011;7383;52.354;9.756;2022-12-13T18:39:17;14.65;;;11.80;;
14592;SDS011;7383;52.354;9.756;2022-12-13T18:41:44;14.50;;;11.38;;
14592;SDS011;7383;52.354;9.756;2022-12-13T18:44:10;15.70;;;11.73;;
14592;SDS011;7383;52.354;9.756;2022-12-13T18:46:37;15.77;;;11.70;;
14592;SDS011;7383;52.354;9.756;2022-12-13T18:49:04;14.00;;;11.68;;
14592;SDS011;7383;52.354;9.756;2022-12-13T18:51:30;14.60;;;11.05;;
14592;SDS011;7383;52.354;9.756;2022-12-13T18:53:58;14.25;;;11.27;;
14592;SDS011;7383;52.354;9.756;2022-12-13T18:56:25;15.27;;;11.52;;
14592;SDS011;7383;52.354;9.756;2022-12-13T18:58:51;15.82;;;11.70;;
14592;SDS011;7383;52.354;9.756;2022-12-13T19:01:18;15.38;;;11.98;;
14592;SDS011;7383;52.354;9.756;2022-12-13T19:03:45;16.02;;;12.55;;
14592;SDS011;7383;52.354;9.756;2022-12-13T19:06:14;15.48;;;12.35;;
14592;SDS011;7383;52.354;9.756;2022-12-13T19:08:41;14.70;;;11.68;;
14592;SDS011;7383;52.354;9.756;2022-12-13T19:11:09;15.07;;;12.40;;
14592;SDS011;7383;52.354;9.756;2022-12-13T19:13:35;16.60;;;12.85;;
14592;SDS011;7383;52.354;9.756;2022-12-13T19:16:03;14.10;;;11.57;;
14592;SDS011;7383;52.354;9.756;2022-12-13T19:18:30;14.00;;;11.52;;
14592;SDS011;7383;52.354;9.756;2022-12-13T19:20:56;14.55;;;11.82;;
14592;SDS011;7383;52.354;9.756;2022-12-13T19:23:22;15.43;;;12.00;;
14592;SDS011;7383;52.354;9.756;2022-12-13T19:25:49;15.13;;;11.65;;
14592;SDS011;7383;52.354;9.756;2022-12-13T19:28:16;14.40;;;12.50;;
14592;SDS011;7383;52.354;9.756;2022-12-13T19:30:43;15.40;;;11.77;;
14592;SDS011;7383;52.354;9.756;2022-12-13T19:33:10;14.02;;;11.80;;
14592;SDS011;7383;52.354;9.756;2022-12-13T19:35:37;16.90;;;12.63;;
14592;SDS011;7383;52.354;9.756;2022-12-13T19:38:04;15.00;;;12.02;;
14592;SDS011;7383;52.354;9.756;2022-12-13T19:40:32;16.10;;;12.23;;
14592;SDS011;7383;52.354;9.756;2022-12-13T19:42:58;13.63;;;11.63;;
14592;SDS011;7383;52.354;9.756;2022-12-13T19:45:26;14.15;;;11.27;;